Nebo, Virginia
Current Conditions -  °F | °C
As of 9:15 AM on Sunday 28 Dec 2014 (Local Time) from KMKJ Reporting Station
Overcast Overcast  
Wind Chill: 43°   Ceiling: 2200
Heat Index: 48°   Visibility: 10mi
Dew Point: 36°   Wind: 12mph
Humidity: 63%   Direction: 260°W
Pressure: 30.08"   Gusts: NA
Location:  37.0101°N, 81.365°W
Report Text: KMKJ 281415Z AUTO 26010KT 10SM OVC022 09/02 A3008 RMK AO2 T00880020
Loading
Personal Weather Stations






























Interactive Weather Map New forecast layout! Learn more

10-Day Weather Forecast

Advertisements
Track Severe Weather on mobile